Time;durP1;ratioP1;P1;durP2;ratioP2;P2;SDS_P1;SDS_P2;PMS_P1;PMS_P2;Temp;Humidity;BMP_temperature;BMP_pressure;BME280_temperature;BME280_humidity;BME280_pressure;Samples;Min_cycle;Max_cycle;Signal;HPM_P1;HPM_P2
2023/09/26 00:01:30;;;;;;;2.10;1.67;;;17.10;92.40;;;;;;5058802;28;20050;-15
2023/09/26 00:03:55;;;;;;;2.50;1.50;;;17.00;92.40;;;;;;5053713;28;20575;-15
2023/09/26 00:06:22;;;;;;;2.13;1.42;;;17.00;92.50;;;;;;5067702;28;20073;-15
2023/09/26 00:08:55;;;;;;;3.67;1.42;;;16.90;92.50;;;;;;5070168;28;20029;-14
2023/09/26 00:11:21;;;;;;;2.03;1.40;;;17.00;92.50;;;;;;5044740;28;20107;-15
2023/09/26 00:13:50;;;;;;;2.33;1.60;;;16.90;92.50;;;;;;5057877;28;20253;-14
2023/09/26 00:16:16;;;;;;;3.40;1.83;;;16.90;92.50;;;;;;5065256;28;20021;-15
2023/09/26 00:18:42;;;;;;;2.80;1.70;;;16.90;92.60;;;;;;5053420;28;20307;-14
2023/09/26 00:21:10;;;;;;;2.60;1.43;;;16.80;92.70;;;;;;5066158;28;20092;-15
2023/09/26 00:23:36;;;;;;;2.28;1.30;;;16.80;92.70;;;;;;5065965;28;20634;-14
2023/09/26 00:26:07;;;;;;;2.33;1.60;;;16.80;92.80;;;;;;5043382;28;20024;-14
2023/09/26 00:28:33;;;;;;;2.40;1.60;;;16.70;92.90;;;;;;5057303;28;20354;-16
2023/09/26 00:31:04;;;;;;;2.70;1.60;;;16.60;92.90;;;;;;5070309;28;20024;-16
2023/09/26 00:33:31;;;;;;;2.10;1.47;;;16.70;93.00;;;;;;5048875;28;20123;-16
2023/09/26 00:36:00;;;;;;;2.40;1.30;;;16.60;93.00;;;;;;5070710;28;20450;-16
2023/09/26 00:38:26;;;;;;;2.28;1.60;;;16.60;93.10;;;;;;5051899;28;20024;-15
2023/09/26 00:40:51;;;;;;;2.58;1.45;;;16.60;93.10;;;;;;5046171;28;20040;-14
2023/09/26 00:43:21;;;;;;;3.40;1.57;;;16.60;93.20;;;;;;5071091;28;20041;-15
2023/09/26 00:45:54;;;;;;;2.25;1.60;;;16.60;93.30;;;;;;5041914;28;20035;-15
2023/09/26 00:48:23;;;;;;;1.80;1.40;;;16.60;93.30;;;;;;5061692;28;20090;-15
2023/09/26 00:50:51;;;;;;;2.33;1.50;;;16.50;93.30;;;;;;5046985;28;20024;-15
2023/09/26 00:53:17;;;;;;;3.20;1.70;;;16.50;93.30;;;;;;5058379;28;20115;-15
2023/09/26 00:55:44;;;;;;;2.30;1.58;;;16.60;93.30;;;;;;5066820;28;20240;-15
2023/09/26 00:58:16;;;;;;;2.72;1.55;;;16.60;93.30;;;;;;5014013;28;20471;-15
2023/09/26 01:00:44;;;;;;;2.28;1.45;;;15.50;94.70;;;;;;5059252;28;20028;-14
2023/09/26 01:03:10;;;;;;;2.85;1.63;;;15.50;94.50;;;;;;5014313;22;20926;-17
2023/09/26 01:05:36;;;;;;;2.60;1.57;;;16.50;93.30;;;;;;4983827;28;20013;-18
2023/09/26 01:08:03;;;;;;;2.00;1.30;;;16.50;93.30;;;;;;4981082;28;20608;-18
2023/09/26 01:10:29;;;;;;;2.78;1.77;;;16.50;93.30;;;;;;5013905;28;20058;-18
2023/09/26 01:12:56;;;;;;;1.92;1.45;;;16.50;93.30;;;;;;4995597;28;20613;-18
2023/09/26 01:15:36;;;;;;;2.27;1.50;;;16.50;93.40;;;;;;5003050;28;20406;-18
2023/09/26 01:18:12;;;;;;;2.30;1.60;;;16.50;93.40;;;;;;4982468;28;20727;-18
2023/09/26 01:20:39;;;;;;;3.80;1.67;;;16.50;93.40;;;;;;4979358;28;20661;-18
2023/09/26 01:23:06;;;;;;;1.92;1.42;;;16.40;93.30;;;;;;5011488;28;20270;-18
2023/09/26 01:25:34;;;;;;;3.00;1.70;;;16.40;93.40;;;;;;4999024;28;20402;-18
2023/09/26 01:28:06;;;;;;;2.40;1.57;;;16.40;93.40;;;;;;4970951;28;20021;-18
2023/09/26 01:30:35;;;;;;;2.55;1.58;;;16.40;93.50;;;;;;5013713;28;20555;-18
2023/09/26 01:33:03;;;;;;;2.70;1.77;;;16.30;93.50;;;;;;4988988;28;20611;-18
2023/09/26 01:35:29;;;;;;;2.45;1.70;;;16.30;93.50;;;;;;5013809;28;20078;-18
2023/09/26 01:37:55;;;;;;;2.37;1.50;;;16.30;93.50;;;;;;4999875;28;21149;-18
2023/09/26 01:40:21;;;;;;;2.28;1.35;;;16.20;93.50;;;;;;5013116;28;20026;-18
2023/09/26 01:42:47;;;;;;;2.05;1.48;;;16.30;93.60;;;;;;4970516;28;20160;-18
2023/09/26 01:45:12;;;;;;;3.20;1.90;;;16.20;93.60;;;;;;5007548;28;20060;-18
2023/09/26 01:47:49;;;;;;;2.75;1.58;;;16.20;93.60;;;;;;5003547;28;20025;-18
2023/09/26 01:50:17;;;;;;;2.08;1.38;;;16.20;93.60;;;;;;5001316;28;20045;-18
2023/09/26 01:52:44;;;;;;;1.90;1.40;;;16.20;93.70;;;;;;5010043;28;20456;-18
2023/09/26 01:55:21;;;;;;;2.57;1.60;;;16.20;93.70;;;;;;5008951;28;20084;-18
2023/09/26 01:57:48;;;;;;;1.70;1.45;;;16.10;93.70;;;;;;5007165;28;20072;-18
2023/09/26 02:00:15;;;;;;;2.67;1.40;;;16.10;93.80;;;;;;4987878;28;20033;-18
2023/09/26 02:02:45;;;;;;;2.08;1.42;;;16.10;93.80;;;;;;4990267;28;20064;-18
2023/09/26 02:05:13;;;;;;;2.25;1.50;;;16.10;93.80;;;;;;4974873;28;20322;-18
2023/09/26 02:07:39;;;;;;;2.47;1.70;;;16.00;93.80;;;;;;4982388;28;20066;-18
2023/09/26 02:10:06;;;;;;;1.77;1.40;;;16.00;93.90;;;;;;4986476;28;20025;-18
2023/09/26 02:12:35;;;;;;;2.20;1.60;;;16.00;93.90;;;;;;4991769;28;20039;-18
2023/09/26 02:15:03;;;;;;;2.53;1.60;;;16.00;93.90;;;;;;4963071;28;20286;-18
2023/09/26 02:17:29;;;;;;;1.60;1.40;;;16.00;93.90;;;;;;4992203;28;20022;-16
2023/09/26 02:19:55;;;;;;;3.00;1.40;;;15.20;95.30;;;;;;4977803;28;20169;-16
2023/09/26 02:22:21;;;;;;;2.28;1.40;;;16.00;95.70;;;;;;4979495;28;20041;-16
2023/09/26 02:24:54;;;;;;;2.53;1.50;;;15.90;94.00;;;;;;4975599;28;20496;-16
2023/09/26 02:27:20;;;;;;;1.77;1.20;;;15.70;95.70;;;;;;4973571;28;20034;-16
2023/09/26 02:29:46;;;;;;;1.97;1.10;;;15.90;94.10;;;;;;4987932;28;20652;-16
2023/09/26 02:32:12;;;;;;;2.67;1.50;;;15.90;94.10;;;;;;4965050;28;20387;-16
2023/09/26 02:34:38;;;;;;;1.98;1.35;;;15.90;94.20;;;;;;4980972;28;20026;-15
2023/09/26 02:37:04;;;;;;;2.50;1.70;;;15.80;94.20;;;;;;4977371;28;20391;-16
2023/09/26 02:39:30;;;;;;;2.28;1.40;;;15.90;94.20;;;;;;4976037;28;20329;-16
2023/09/26 02:41:56;;;;;;;2.05;1.52;;;15.90;94.30;;;;;;4971725;28;20295;-16
2023/09/26 02:44:22;;;;;;;2.60;1.50;;;15.80;94.30;;;;;;4986293;28;20106;-16
2023/09/26 02:46:47;;;;;;;1.98;1.40;;;15.90;94.30;;;;;;4966041;28;20113;-15
2023/09/26 02:49:13;;;;;;;2.90;1.37;;;15.90;94.30;;;;;;4974672;28;20026;-16
2023/09/26 02:51:39;;;;;;;2.17;1.35;;;15.90;94.30;;;;;;4978727;28;20037;-16
2023/09/26 02:54:04;;;;;;;1.80;1.40;;;15.80;94.30;;;;;;4982385;28;20061;-16
2023/09/26 02:56:30;;;;;;;1.88;1.38;;;15.80;94.40;;;;;;4988190;28;20088;-15
2023/09/26 02:58:56;;;;;;;1.60;1.30;;;15.80;94.40;;;;;;4972255;28;20025;-16
2023/09/26 03:01:22;;;;;;;2.80;1.40;;;15.80;94.40;;;;;;4949222;28;20026;-16
2023/09/26 03:03:48;;;;;;;3.03;1.42;;;15.80;94.40;;;;;;4986435;28;20048;-16
2023/09/26 03:06:14;;;;;;;1.73;1.30;;;15.70;94.40;;;;;;4971717;28;20030;-15
2023/09/26 03:08:39;;;;;;;1.93;1.27;;;15.70;94.50;;;;;;4981364;28;20030;-15
2023/09/26 03:11:05;;;;;;;2.10;1.45;;;15.80;94.50;;;;;;4983281;28;20037;-16
2023/09/26 03:13:34;;;;;;;2.03;1.40;;;15.70;94.50;;;;;;4968493;28;20684;-15
2023/09/26 03:16:01;;;;;;;2.33;1.40;;;15.70;94.50;;;;;;4953987;28;20062;-16
2023/09/26 03:18:27;;;;;;;2.05;1.30;;;15.70;94.50;;;;;;4973743;28;20674;-15
2023/09/26 03:20:54;;;;;;;2.20;1.50;;;15.70;94.50;;;;;;4965535;28;20028;-16
2023/09/26 03:23:25;;;;;;;2.40;1.40;;;15.70;94.50;;;;;;4974301;28;20030;-16
2023/09/26 03:25:50;;;;;;;2.15;1.30;;;15.70;94.50;;;;;;4982581;28;20030;-16
2023/09/26 03:28:16;;;;;;;2.00;1.30;;;15.60;94.50;;;;;;4983992;28;20025;-15
2023/09/26 03:30:43;;;;;;;2.80;1.50;;;15.60;94.50;;;;;;4987567;28;20034;-16
2023/09/26 03:33:10;;;;;;;2.08;1.40;;;15.60;94.50;;;;;;4961598;28;20034;-16
2023/09/26 03:35:36;;;;;;;2.00;1.38;;;15.60;94.50;;;;;;4956143;28;20119;-16
2023/09/26 03:38:02;;;;;;;1.83;1.10;;;15.60;94.50;;;;;;4977108;28;20082;-16
2023/09/26 03:40:28;;;;;;;2.13;1.30;;;15.50;94.50;;;;;;4978142;28;20030;-16
2023/09/26 03:42:54;;;;;;;2.60;1.40;;;15.50;94.60;;;;;;4990094;28;20073;-16
2023/09/26 03:45:21;;;;;;;2.33;1.42;;;15.50;94.60;;;;;;4986078;28;20084;-16
2023/09/26 03:47:48;;;;;;;1.80;1.40;;;15.50;94.60;;;;;;4963833;28;20022;-15
2023/09/26 03:50:14;;;;;;;2.47;1.80;;;15.50;94.70;;;;;;4977393;28;20108;-16
2023/09/26 03:52:39;;;;;;;2.03;1.40;;;15.50;94.70;;;;;;4959269;28;20041;-15
2023/09/26 03:55:06;;;;;;;2.17;1.40;;;15.40;94.70;;;;;;4977337;28;20035;-16
2023/09/26 03:57:33;;;;;;;2.10;1.40;;;15.40;94.70;;;;;;4977679;28;20030;-16
2023/09/26 04:00:00;;;;;;;1.95;1.27;;;15.40;94.70;;;;;;4989157;28;20090;-16
2023/09/26 04:02:26;;;;;;;2.72;1.33;;;15.40;94.80;;;;;;4969293;28;20046;-16
2023/09/26 04:04:52;;;;;;;2.28;1.30;;;15.40;94.80;;;;;;4970585;28;20151;-16
2023/09/26 04:07:18;;;;;;;2.10;1.50;;;15.30;94.90;;;;;;4987460;28;20037;-16
2023/09/26 04:09:44;;;;;;;1.85;1.27;;;15.40;95.00;;;;;;4962669;28;20037;-16
2023/09/26 04:12:10;;;;;;;3.80;2.00;;;15.40;95.00;;;;;;4982114;28;20026;-16
2023/09/26 04:14:36;;;;;;;1.98;1.38;;;15.40;95.00;;;;;;4966504;28;20038;-15
2023/09/26 04:17:02;;;;;;;1.63;1.20;;;15.40;95.00;;;;;;4991386;28;20022;-15
2023/09/26 04:19:28;;;;;;;2.30;1.30;;;15.40;95.10;;;;;;4962428;28;20117;-16
2023/09/26 04:21:54;;;;;;;2.40;1.40;;;15.40;95.10;;;;;;4969618;28;20120;-15
2023/09/26 04:24:20;;;;;;;2.28;1.40;;;15.40;95.10;;;;;;4974945;28;20731;-16
2023/09/26 04:26:49;;;;;;;1.90;1.40;;;15.40;95.10;;;;;;4963395;28;20866;-15
2023/09/26 04:29:15;;;;;;;2.60;1.38;;;15.40;95.10;;;;;;4970824;28;20491;-16
2023/09/26 04:31:41;;;;;;;1.83;1.30;;;15.40;95.10;;;;;;4988186;28;20037;-16
2023/09/26 04:34:06;;;;;;;2.77;1.50;;;15.40;95.20;;;;;;4974297;28;20029;-16
2023/09/26 04:36:32;;;;;;;3.83;1.60;;;15.30;95.30;;;;;;4991131;28;20024;-15
2023/09/26 04:38:58;;;;;;;2.33;1.37;;;15.40;95.30;;;;;;4976480;28;20577;-15
2023/09/26 04:41:24;;;;;;;1.50;1.20;;;15.40;95.40;;;;;;4965648;28;20041;-16
2023/09/26 04:43:49;;;;;;;1.75;1.50;;;15.40;95.50;;;;;;4979050;28;20029;-16
2023/09/26 04:46:16;;;;;;;2.73;1.50;;;15.40;95.50;;;;;;4986945;28;20025;-16
2023/09/26 04:48:44;;;;;;;2.25;1.33;;;15.40;95.50;;;;;;4978391;28;20388;-16
2023/09/26 04:51:12;;;;;;;2.00;1.30;;;15.10;97.10;;;;;;4975908;28;20759;-16
2023/09/26 04:53:38;;;;;;;1.90;1.30;;;15.40;95.50;;;;;;4977866;28;20525;-16
2023/09/26 04:56:04;;;;;;;2.42;1.75;;;15.40;95.50;;;;;;4985604;28;20018;-15
2023/09/26 04:58:32;;;;;;;1.90;1.35;;;15.40;95.40;;;;;;4973000;28;20030;-15
2023/09/26 05:01:00;;;;;;;2.53;1.50;;;15.40;95.40;;;;;;5042977;28;20291;-15
2023/09/26 05:03:27;;;;;;;2.07;1.30;;;15.40;95.40;;;;;;4971963;28;20107;-16
2023/09/26 05:05:53;;;;;;;3.47;1.30;;;15.40;95.30;;;;;;4966148;28;20331;-15
2023/09/26 05:08:19;;;;;;;2.60;1.38;;;15.40;95.30;;;;;;4973353;28;20604;-16
2023/09/26 05:10:48;;;;;;;2.75;1.67;;;15.30;95.30;;;;;;4976346;28;20048;-15
2023/09/26 05:13:14;;;;;;;2.03;1.40;;;15.30;95.30;;;;;;4972652;28;20456;-16
2023/09/26 05:15:40;;;;;;;1.77;1.30;;;15.30;95.30;;;;;;4978389;28;20276;-15
2023/09/26 05:18:06;;;;;;;1.75;1.23;;;15.30;95.30;;;;;;4982273;28;20034;-16
2023/09/26 05:20:32;;;;;;;2.70;1.40;;;15.20;95.30;;;;;;4920091;28;20524;-16
2023/09/26 05:23:00;;;;;;;2.03;1.57;;;15.20;95.30;;;;;;4972914;28;20210;-16
2023/09/26 05:25:27;;;;;;;1.73;1.27;;;15.20;95.30;;;;;;4951261;28;20034;-15
2023/09/26 05:27:52;;;;;;;2.00;1.30;;;15.10;95.30;;;;;;4969522;28;20284;-16
2023/09/26 05:30:18;;;;;;;1.77;1.40;;;16.20;97.40;;;;;;4977290;28;20034;-16
2023/09/26 05:32:44;;;;;;;1.98;1.50;;;15.00;95.40;;;;;;4962801;28;20309;-16
2023/09/26 05:35:11;;;;;;;2.42;1.48;;;15.10;95.50;;;;;;4939898;28;20131;-15
2023/09/26 05:37:37;;;;;;;1.53;1.10;;;15.10;95.50;;;;;;4987808;28;20033;-16
2023/09/26 05:40:09;;;;;;;1.58;1.20;;;15.00;95.50;;;;;;4968040;28;20282;-16
2023/09/26 05:42:36;;;;;;;1.80;1.30;;;15.10;95.70;;;;;;4984905;28;20510;-16
2023/09/26 05:45:03;;;;;;;2.30;1.50;;;15.00;95.70;;;;;;4970759;28;20699;-16
2023/09/26 05:47:29;;;;;;;2.38;1.50;;;15.10;95.70;;;;;;4990666;28;20100;-15
2023/09/26 05:49:55;;;;;;;2.43;1.43;;;15.10;95.80;;;;;;4965540;28;20451;-16
2023/09/26 05:52:21;;;;;;;3.42;1.70;;;15.10;95.80;;;;;;4951417;28;20541;-16
2023/09/26 05:54:47;;;;;;;2.50;1.60;;;15.10;95.90;;;;;;4979694;28;20373;-16
2023/09/26 05:57:14;;;;;;;2.17;1.45;;;15.10;96.00;;;;;;4968084;28;20034;-16
2023/09/26 05:59:40;;;;;;;1.58;1.23;;;15.10;96.00;;;;;;4980393;28;20138;-16
2023/09/26 06:02:11;;;;;;;1.67;1.33;;;15.10;96.00;;;;;;4966587;28;20123;-16
2023/09/26 06:04:44;;;;;;;1.97;1.40;;;15.20;96.10;;;;;;4962205;28;20030;-16
2023/09/26 06:07:11;;;;;;;2.40;1.70;;;15.20;96.10;;;;;;4951516;28;20667;-16
2023/09/26 06:09:37;;;;;;;2.50;1.70;;;15.20;96.20;;;;;;4988712;28;20026;-16
2023/09/26 06:12:04;;;;;;;2.47;1.70;;;15.20;96.20;;;;;;4955346;28;20396;-16
2023/09/26 06:14:31;;;;;;;2.60;1.93;;;15.30;96.20;;;;;;4959873;28;20517;-16
2023/09/26 06:16:58;;;;;;;3.13;1.58;;;15.30;96.30;;;;;;4999284;28;20394;-16
2023/09/26 06:19:24;;;;;;;2.83;1.58;;;15.30;96.30;;;;;;4976040;28;20388;-16
2023/09/26 06:21:49;;;;;;;1.98;1.40;;;15.30;96.40;;;;;;4955449;28;20041;-16
2023/09/26 06:24:15;;;;;;;2.33;1.50;;;15.40;96.50;;;;;;4985120;28;20547;-15
2023/09/26 06:26:41;;;;;;;4.30;1.67;;;15.40;96.60;;;;;;4935508;28;20436;-16
2023/09/26 06:29:07;;;;;;;2.87;1.40;;;15.40;96.70;;;;;;4982525;28;20129;-16
2023/09/26 06:31:33;;;;;;;2.63;1.48;;;15.40;96.80;;;;;;4974940;28;20100;-16
2023/09/26 06:34:00;;;;;;;2.13;1.40;;;15.50;96.80;;;;;;4989117;28;20730;-16
2023/09/26 06:36:30;;;;;;;2.35;1.40;;;15.40;98.50;;;;;;4963700;28;20144;-16
2023/09/26 06:38:59;;;;;;;2.72;1.58;;;15.50;96.90;;;;;;4968733;28;20033;-16
2023/09/26 06:41:26;;;;;;;1.98;1.50;;;15.60;97.00;;;;;;4973098;28;20678;-16
2023/09/26 06:43:51;;;;;;;2.42;1.63;;;15.70;97.40;;;;;;4939066;28;20022;-16
2023/09/26 06:46:17;;;;;;;2.47;1.30;;;15.80;97.20;;;;;;4974939;28;20041;-16
2023/09/26 06:48:43;;;;;;;2.60;1.20;;;15.80;97.20;;;;;;4988112;28;20191;-16
2023/09/26 06:51:09;;;;;;;2.33;1.60;;;15.90;97.30;;;;;;4972591;28;20031;-18
2023/09/26 06:53:36;;;;;;;3.47;1.60;;;15.90;97.30;;;;;;4932799;28;20046;-17
2023/09/26 06:56:06;;;;;;;2.03;1.52;;;16.00;97.40;;;;;;4971763;28;20041;-18
2023/09/26 06:58:32;;;;;;;2.53;1.52;;;16.00;97.40;;;;;;4956074;28;20752;-18
2023/09/26 07:00:58;;;;;;;1.80;1.48;;;16.10;97.50;;;;;;4963843;28;20880;-18
2023/09/26 07:03:27;;;;;;;1.87;1.33;;;16.20;97.50;;;;;;4973110;28;20613;-18
2023/09/26 07:05:54;;;;;;;1.95;1.40;;;16.20;97.50;;;;;;5003744;28;20056;-17
2023/09/26 07:08:20;;;;;;;2.42;1.52;;;16.20;97.50;;;;;;4965207;28;20111;-18
2023/09/26 07:10:46;;;;;;;2.75;1.50;;;16.30;97.70;;;;;;4990539;28;20034;-18
2023/09/26 07:13:13;;;;;;;2.20;1.50;;;16.40;97.70;;;;;;4968790;28;20022;-18
2023/09/26 07:15:42;;;;;;;2.70;1.63;;;16.40;97.80;;;;;;4976147;28;20633;-18
2023/09/26 07:18:10;;;;;;;2.92;1.70;;;16.50;97.90;;;;;;4974126;28;20453;-18
2023/09/26 07:20:49;;;;;;;2.75;1.67;;;16.60;98.00;;;;;;4981731;28;20325;-18
2023/09/26 07:23:15;;;;;;;2.40;1.50;;;16.60;98.10;;;;;;4973906;28;20385;-18
2023/09/26 07:25:40;;;;;;;2.50;1.60;;;16.80;98.60;;;;;;4990861;28;20182;-18
2023/09/26 07:28:07;;;;;;;2.25;1.63;;;16.90;99.30;;;;;;5018261;28;20034;-18
2023/09/26 07:30:33;;;;;;;2.85;1.52;;;17.10;99.90;;;;;;4992538;28;20462;-18
2023/09/26 07:32:58;;;;;;;2.80;1.58;;;17.40;99.90;;;;;;4948971;28;20042;-18
2023/09/26 07:35:25;;;;;;;2.40;1.67;;;17.60;99.90;;;;;;4985370;28;20034;-18
2023/09/26 07:37:51;;;;;;;3.08;1.50;;;17.80;99.70;;;;;;5058529;28;20022;-18
2023/09/26 07:40:17;;;;;;;3.55;1.58;;;18.00;99.60;;;;;;4946517;28;20035;-18
2023/09/26 07:42:43;;;;;;;3.07;1.50;;;18.20;99.70;;;;;;4961517;28;20601;-18
2023/09/26 07:45:09;;;;;;;2.60;1.50;;;18.40;99.80;;;;;;4976498;28;20030;-18
2023/09/26 07:47:35;;;;;;;2.80;1.48;;;18.50;99.70;;;;;;4972141;28;20716;-18
2023/09/26 07:50:01;;;;;;;1.83;1.43;;;18.70;99.90;;;;;;4985124;28;20074;-18
2023/09/26 07:52:27;;;;;;;1.98;1.42;;;18.80;99.90;;;;;;4980579;28;20037;-18
2023/09/26 07:54:53;;;;;;;2.70;1.60;;;19.10;99.90;;;;;;4934778;28;20176;-16
2023/09/26 07:57:22;;;;;;;2.40;1.48;;;19.30;99.90;;;;;;4960125;28;20023;-16
2023/09/26 07:59:47;;;;;;;2.63;1.40;;;19.50;99.90;;;;;;4960910;28;20014;-16
2023/09/26 08:02:13;;;;;;;1.80;1.40;;;19.70;99.90;;;;;;4956229;28;21628;-16
2023/09/26 08:04:39;;;;;;;2.83;1.40;;;19.80;99.80;;;;;;4983779;28;20026;-16
2023/09/26 08:07:05;;;;;;;2.33;1.50;;;20.00;99.90;;;;;;4939132;28;20251;-16
2023/09/26 08:09:31;;;;;;;2.55;1.67;;;20.10;99.70;;;;;;4980700;28;20038;-18
2023/09/26 08:11:58;;;;;;;2.47;1.40;;;20.30;99.60;;;;;;4955417;28;20029;-18
2023/09/26 08:14:24;;;;;;;2.30;1.50;;;20.50;99.60;;;;;;4934722;28;20826;-18
2023/09/26 08:16:50;;;;;;;2.72;1.50;;;20.50;99.20;;;;;;5039578;28;20514;-18
2023/09/26 08:19:16;;;;;;;2.03;1.40;;;20.50;99.10;;;;;;4973973;28;20077;-18
2023/09/26 08:21:43;;;;;;;2.67;1.55;;;20.60;99.00;;;;;;4981783;28;20036;-18
2023/09/26 08:24:08;;;;;;;1.65;1.40;;;20.70;99.00;;;;;;4971326;28;20532;-19
2023/09/26 08:26:34;;;;;;;3.10;1.43;;;20.80;99.00;;;;;;4948436;28;20038;-18
2023/09/26 08:29:00;;;;;;;1.90;1.40;;;20.80;98.90;;;;;;4958818;28;20129;-18
2023/09/26 08:31:26;;;;;;;1.63;1.20;;;20.90;99.10;;;;;;4986768;28;20499;-19
2023/09/26 08:33:53;;;;;;;1.65;1.20;;;20.20;98.90;;;;;;4974120;28;20034;-18
2023/09/26 08:36:20;;;;;;;3.60;1.50;;;21.20;99.70;;;;;;4979186;28;20030;-19
2023/09/26 08:38:48;;;;;;;1.90;1.30;;;21.30;99.70;;;;;;4979769;28;20372;-18
2023/09/26 08:41:16;;;;;;;2.90;1.55;;;21.50;99.70;;;;;;4952571;28;20334;-18
2023/09/26 08:43:43;;;;;;;1.67;1.35;;;21.70;99.30;;;;;;4970586;28;20111;-18
2023/09/26 08:46:10;;;;;;;2.50;1.40;;;21.80;99.10;;;;;;4978754;28;20114;-19
2023/09/26 08:48:36;;;;;;;2.08;1.20;;;22.00;98.90;;;;;;4988279;28;20033;-19
2023/09/26 08:51:03;;;;;;;3.10;1.40;;;22.00;98.40;;;;;;4969593;28;20042;-18
2023/09/26 08:53:29;;;;;;;2.15;1.33;;;22.00;98.00;;;;;;4977847;28;20121;-19
2023/09/26 08:55:55;;;;;;;2.22;1.38;;;22.00;97.80;;;;;;4939852;28;20169;-18
2023/09/26 08:58:21;;;;;;;2.17;1.40;;;22.00;97.80;;;;;;4973725;28;20744;-19
2023/09/26 09:00:48;;;;;;;2.20;1.30;;;22.10;97.70;;;;;;4955164;28;20041;-18
2023/09/26 09:03:14;;;;;;;1.63;1.20;;;22.00;97.60;;;;;;4977756;28;20038;-18
2023/09/26 09:05:40;;;;;;;2.38;1.35;;;22.00;97.70;;;;;;4957984;28;20037;-18
2023/09/26 09:08:09;;;;;;;2.13;1.30;;;22.00;97.60;;;;;;4979752;28;20281;-18
2023/09/26 09:10:54;;;;;;;2.60;1.40;;;22.10;97.50;;;;;;4980362;28;20138;-18
2023/09/26 09:13:30;;;;;;;1.97;1.40;;;22.10;96.40;;;;;;4955445;28;20023;-20
2023/09/26 09:16:15;;;;;;;1.95;1.30;;;22.20;97.20;;;;;;4961950;28;20130;-18
2023/09/26 09:18:58;;;;;;;1.73;1.27;;;22.30;96.80;;;;;;4975089;28;20377;-18
2023/09/26 09:21:30;;;;;;;2.08;1.40;;;22.50;98.70;;;;;;4962670;28;20113;-18
2023/09/26 09:24:02;;;;;;;1.83;1.33;;;22.70;99.10;;;;;;4965905;28;20099;-18
2023/09/26 09:26:51;;;;;;;3.03;1.33;;;22.90;97.90;;;;;;4968774;28;20317;-18
2023/09/26 09:29:21;;;;;;;2.17;1.20;;;23.10;96.60;;;;;;4952064;28;20510;-18
2023/09/26 09:31:47;;;;;;;2.17;1.30;;;23.30;97.70;;;;;;4954949;28;20042;-18
2023/09/26 09:34:15;;;;;;;2.30;1.40;;;23.40;98.20;;;;;;4973008;28;20040;-18
2023/09/26 09:36:44;;;;;;;2.28;1.13;;;23.50;97.40;;;;;;4944224;28;20030;-18
2023/09/26 09:39:10;;;;;;;2.23;1.20;;;23.50;97.30;;;;;;4958917;28;20061;-18
2023/09/26 09:41:39;;;;;;;1.60;1.30;;;23.60;97.50;;;;;;4961384;28;20246;-18
2023/09/26 09:44:05;;;;;;;1.95;1.30;;;23.70;97.40;;;;;;4961151;28;20044;-18
2023/09/26 09:46:35;;;;;;;2.60;1.38;;;23.90;98.40;;;;;;4943773;28;23307;-18
2023/09/26 09:49:02;;;;;;;1.63;1.10;;;24.00;98.00;;;;;;4957395;28;20038;-18
2023/09/26 09:51:29;;;;;;;2.70;1.30;;;24.20;98.30;;;;;;4942844;28;20220;-18
2023/09/26 09:53:56;;;;;;;2.13;1.40;;;24.40;98.30;;;;;;4984299;28;20037;-18
2023/09/26 09:56:24;;;;;;;2.35;1.35;;;24.60;97.70;;;;;;4959752;28;20030;-18
2023/09/26 09:58:52;;;;;;;3.08;1.40;;;24.70;97.20;;;;;;4962584;28;20026;-19
2023/09/26 10:01:20;;;;;;;2.47;1.25;;;24.80;97.00;;;;;;4974343;28;20105;-18
2023/09/26 10:03:48;;;;;;;2.07;1.17;;;24.90;96.90;;;;;;4959969;28;20056;-18
2023/09/26 10:06:14;;;;;;;2.30;1.00;;;24.90;96.40;;;;;;4955857;28;20026;-18
2023/09/26 10:08:41;;;;;;;2.28;1.17;;;25.00;96.50;;;;;;4977706;28;20238;-18
2023/09/26 10:11:09;;;;;;;1.95;1.40;;;25.00;95.90;;;;;;4965540;28;20140;-18
2023/09/26 10:13:35;;;;;;;1.90;1.20;;;25.10;96.20;;;;;;4960305;28;20461;-19
2023/09/26 10:16:11;;;;;;;2.10;1.30;;;25.20;96.20;;;;;;4990432;28;20041;-18
2023/09/26 10:18:39;;;;;;;1.50;1.17;;;25.20;94.90;;;;;;4968126;28;20412;-19
2023/09/26 10:21:26;;;;;;;1.98;1.17;;;25.30;95.90;;;;;;4975558;28;20034;-18
2023/09/26 10:24:13;;;;;;;2.63;1.30;;;25.30;94.20;;;;;;4976249;28;20018;-18
2023/09/26 10:26:50;;;;;;;2.23;1.30;;;25.40;94.00;;;;;;4991072;28;20065;-19
2023/09/26 10:29:24;;;;;;;2.00;1.25;;;25.50;94.40;;;;;;4963770;28;20094;-17
2023/09/26 10:32:04;;;;;;;2.63;1.20;;;25.50;94.60;;;;;;4968738;28;20121;-16
2023/09/26 10:34:36;;;;;;;1.98;1.30;;;25.50;95.20;;;;;;4957180;28;20407;-16
2023/09/26 10:37:06;;;;;;;1.50;1.15;;;25.60;95.10;;;;;;4985224;28;20036;-16
2023/09/26 10:39:39;;;;;;;2.47;1.10;;;25.70;94.90;;;;;;4961109;28;20036;-16
2023/09/26 10:42:13;;;;;;;1.58;1.20;;;25.80;94.50;;;;;;4963165;28;20518;-17
2023/09/26 10:44:43;;;;;;;1.65;1.20;;;25.90;95.20;;;;;;4960972;28;20379;-16
2023/09/26 10:47:12;;;;;;;2.28;1.30;;;26.20;96.50;;;;;;4988044;28;20041;-17
2023/09/26 10:49:38;;;;;;;2.33;1.42;;;26.40;95.90;;;;;;4948390;28;20172;-16
2023/09/26 10:52:08;;;;;;;2.13;1.23;;;26.50;96.00;;;;;;4973739;28;20022;-17
2023/09/26 10:54:37;;;;;;;1.92;1.08;;;26.70;95.20;;;;;;4973543;28;20030;-16
2023/09/26 10:57:04;;;;;;;2.97;1.42;;;26.80;95.30;;;;;;4973713;28;20026;-17
2023/09/26 10:59:30;;;;;;;2.30;1.30;;;26.90;95.40;;;;;;4974604;28;20131;-16
2023/09/26 11:01:58;;;;;;;1.95;1.40;;;27.00;95.20;;;;;;4966118;28;20047;-17
2023/09/26 11:04:34;;;;;;;1.83;1.30;;;27.10;94.90;;;;;;4968213;28;20226;-17
2023/09/26 11:07:00;;;;;;;1.83;1.30;;;27.10;93.00;;;;;;4956495;28;20062;-17
2023/09/26 11:09:27;;;;;;;1.75;1.35;;;27.20;94.80;;;;;;4963279;28;20315;-16
2023/09/26 11:11:56;;;;;;;1.63;1.40;;;27.30;94.70;;;;;;4979038;28;20022;-17
2023/09/26 11:14:26;;;;;;;2.20;1.27;;;27.40;94.30;;;;;;4949799;28;20266;-16
2023/09/26 11:16:52;;;;;;;2.93;1.20;;;27.50;93.60;;;;;;4963198;28;20026;-17
2023/09/26 11:19:21;;;;;;;1.80;1.15;;;27.60;94.60;;;;;;4957691;28;20068;-16
2023/09/26 11:21:51;;;;;;;2.08;1.40;;;27.70;94.80;;;;;;4971456;28;20107;-17
2023/09/26 11:24:28;;;;;;;2.25;1.35;;;27.80;94.50;;;;;;4976051;28;20660;-16
2023/09/26 11:27:01;;;;;;;2.28;1.50;;;27.90;93.00;;;;;;4962950;28;20672;-17
2023/09/26 11:29:27;;;;;;;1.80;1.40;;;28.00;93.20;;;;;;4972205;28;20352;-17
2023/09/26 11:31:55;;;;;;;2.03;1.35;;;28.20;94.20;;;;;;4964298;28;20033;-17
2023/09/26 11:34:21;;;;;;;1.92;1.42;;;28.20;94.00;;;;;;4978858;28;21390;-17
2023/09/26 11:36:51;;;;;;;2.08;1.50;;;28.30;94.00;;;;;;4974520;28;20489;-17
2023/09/26 11:39:21;;;;;;;1.88;1.45;;;28.40;93.10;;;;;;4972559;28;20440;-17
2023/09/26 11:42:04;;;;;;;2.43;1.37;;;28.60;92.40;;;;;;4976329;28;20492;-17
2023/09/26 11:44:30;;;;;;;1.45;1.13;;;28.70;93.70;;;;;;4981386;28;20313;-16
2023/09/26 11:46:57;;;;;;;2.08;1.42;;;28.90;93.50;;;;;;4963313;28;20469;-17
2023/09/26 11:49:23;;;;;;;2.25;1.38;;;28.90;93.10;;;;;;4968763;28;20072;-17
2023/09/26 11:51:52;;;;;;;1.80;1.50;;;28.90;92.90;;;;;;4976077;28;21079;-16
2023/09/26 11:54:18;;;;;;;2.07;1.40;;;29.00;92.60;;;;;;4972466;28;20481;-17
2023/09/26 11:56:44;;;;;;;3.33;1.50;;;29.10;92.80;;;;;;4976100;28;20033;-17
2023/09/26 11:59:11;;;;;;;1.95;1.13;;;29.20;92.70;;;;;;4985718;28;20511;-16
2023/09/26 12:01:41;;;;;;;2.35;1.50;;;29.30;93.00;;;;;;4981218;28;20691;-17
2023/09/26 12:04:12;;;;;;;1.83;1.27;;;29.50;93.10;;;;;;4953652;28;20508;-17
2023/09/26 12:06:40;;;;;;;2.50;1.48;;;29.60;92.10;;;;;;4962720;28;20507;-17
2023/09/26 12:09:21;;;;;;;2.17;1.40;;;29.70;92.40;;;;;;4977456;28;20388;-17
2023/09/26 12:11:48;;;;;;;2.35;1.45;;;29.90;90.30;;;;;;4961099;28;20462;-16
2023/09/26 12:14:15;;;;;;;2.20;1.55;;;30.10;92.80;;;;;;4974346;28;20076;-17
2023/09/26 12:16:42;;;;;;;1.63;1.50;;;30.30;93.40;;;;;;4967410;28;20068;-16
2023/09/26 12:19:08;;;;;;;2.33;1.40;;;30.60;93.90;;;;;;4940746;28;20033;-17
2023/09/26 12:21:34;;;;;;;1.80;1.55;;;31.00;93.70;;;;;;4966066;28;20215;-17
2023/09/26 12:24:00;;;;;;;1.90;1.70;;;31.30;93.70;;;;;;4976287;28;20484;-17
2023/09/26 12:26:26;;;;;;;2.23;1.60;;;31.70;93.70;;;;;;4953305;28;20101;-17
2023/09/26 12:28:52;;;;;;;2.45;1.52;;;32.00;93.10;;;;;;4958815;28;20736;-17
2023/09/26 12:31:18;;;;;;;1.93;1.53;;;32.30;92.40;;;;;;4981638;28;20030;-17
2023/09/26 12:33:43;;;;;;;2.33;1.60;;;32.40;91.50;;;;;;4948106;28;20104;-16
2023/09/26 12:36:10;;;;;;;2.77;1.47;;;32.50;90.80;;;;;;4976939;28;20484;-17
2023/09/26 12:38:36;;;;;;;1.80;1.60;;;32.50;90.20;;;;;;4964574;28;20849;-17
2023/09/26 12:41:02;;;;;;;2.30;1.70;;;32.40;89.10;;;;;;4990684;28;20056;-17
2023/09/26 12:43:28;;;;;;;2.10;1.65;;;32.30;88.30;;;;;;4971075;28;20062;-17
2023/09/26 12:45:54;;;;;;;2.28;1.30;;;32.30;87.40;;;;;;4971834;28;20087;-16
2023/09/26 12:48:20;;;;;;;2.20;1.70;;;32.20;87.20;;;;;;4979070;28;20481;-17
2023/09/26 12:50:46;;;;;;;2.80;1.50;;;32.20;88.10;;;;;;4965269;28;20053;-16